Skip Navigation Links
NOAA logo - Click to go to the NOAA homepage
NOAA's National Weather Service
Alaska Aviation Weather Unit
  NWS logo - Click to go to the NWS homepage
Left Navbar Graphic     23 AKDT = 07 GMT

   
NOAA is celebrating 200 years of science, service, and stewardship. Visit the NOAA 200th celebration Web site to learn more.
USA.gov is the U.S. Government's official Web portal to all Federal, state and local government Web resources and services.
Facebook
NWS on Facebook

AAWU Home :: Display TAF Add Bookmark
TAF PAAQ 240525Z 2406/2506 13008KT P6SM VCSH BKN060
     FM240800 VRB03KT P6SM VCSH BKN060
     FM242100 14015G22KT P6SM OVC100=
METAR PAAQ 240153Z 22004KT 10SM BKN085 OVC200 13/01 A2965 RMK AO2 SLP043
     T01280006 $=

METAR PAAQ 240253Z AUTO 13008KT 10SM SCT090 13/00 A2965 RMK AO2 SLP041
     T01280000 56004 TSNO $=

METAR PAAQ 240353Z AUTO 16006KT 10SM BKN080 OVC100 12/01 A2965 RMK
 AO2 SLP042 T01220006 TSNO $=

METAR PAAQ 240453Z AUTO 13008KT 10SM OVC075 11/00 A2965 RMK AO2
 SLP042 T01060000 TSNO $=

METAR PAAQ 240553Z AUTO 10007KT 10SM FEW070 OVC090 09/00 A2965 RMK AO2
     SLP042 T00940000 10144 20094 52001 TSNO $=

METAR PAAQ 240653Z AUTO 04006KT 10SM FEW090 SCT120 08/M01 A2965 RMK AO2
     SLP043 T00781006 TSNO $=


NOAA's National Weather Service
Alaska Aviation Weather Unit
6930 Sand Lake Road
Anchorage, AK 99502-1845
Disclaimer
Credits
Glossary
Privacy Policy
About Us
Career Opportunities
Contact AAWU Internet Services Site last modified: April, 17th 2012